createdAt,value
2018-08-30T00:00:43.965Z,21.65
2018-08-30T00:03:12.253Z,21.61
2018-08-30T00:05:40.352Z,21.51
2018-08-30T00:08:08.098Z,21.40
2018-08-30T00:10:35.899Z,21.43
2018-08-30T00:13:03.682Z,21.22
2018-08-30T00:15:31.398Z,21.05
2018-08-30T00:17:59.110Z,21.07
2018-08-30T00:20:26.877Z,20.96
2018-08-30T00:22:58.506Z,21.13
2018-08-30T00:25:26.208Z,21.12
2018-08-30T00:27:53.935Z,21.22
2018-08-30T00:30:21.998Z,21.24
2018-08-30T00:32:49.886Z,21.07
2018-08-30T00:35:17.626Z,20.97
2018-08-30T00:37:45.336Z,21.01
2018-08-30T00:40:13.059Z,21.08
2018-08-30T00:42:40.830Z,21.08
2018-08-30T00:45:08.586Z,21.15
2018-08-30T00:47:36.347Z,21.22
2018-08-30T00:50:04.682Z,21.12
2018-08-30T00:52:32.510Z,21.16
2018-08-30T00:55:00.640Z,21.12
2018-08-30T00:57:28.359Z,21.07
2018-08-30T00:59:56.668Z,21.01
2018-08-30T01:02:24.468Z,21.00
2018-08-30T01:04:52.248Z,21.23
2018-08-30T01:07:20.031Z,21.07
2018-08-30T01:09:48.688Z,21.00
2018-08-30T01:12:16.469Z,20.94
2018-08-30T01:14:44.475Z,20.96
2018-08-30T01:17:12.260Z,21.05
2018-08-30T01:19:40.063Z,21.05
2018-08-30T01:22:08.188Z,20.91
2018-08-30T01:24:35.977Z,20.94
2018-08-30T01:27:03.813Z,20.93
2018-08-30T01:29:31.942Z,20.99
2018-08-30T01:31:59.872Z,20.92
2018-08-30T01:34:27.708Z,20.85
2018-08-30T01:36:55.556Z,20.83
2018-08-30T01:39:27.238Z,20.84
2018-08-30T01:41:55.767Z,20.81
2018-08-30T01:44:23.615Z,20.79
2018-08-30T01:46:52.458Z,20.84
2018-08-30T01:49:20.324Z,20.81
2018-08-30T01:51:48.209Z,20.74
2018-08-30T01:54:16.091Z,20.74
2018-08-30T01:56:44.012Z,20.74
2018-08-30T01:59:11.857Z,20.72
2018-08-30T02:01:39.696Z,20.61
2018-08-30T02:04:07.572Z,20.58
2018-08-30T02:06:35.557Z,20.58
2018-08-30T02:09:08.030Z,20.57
2018-08-30T02:11:35.861Z,20.60
2018-08-30T02:14:03.691Z,20.68
2018-08-30T02:16:31.621Z,20.61
2018-08-30T02:18:59.531Z,20.58
2018-08-30T02:21:27.596Z,20.56
2018-08-30T02:23:55.668Z,20.51
2018-08-30T02:26:23.704Z,20.42
2018-08-30T02:28:51.516Z,20.40
2018-08-30T02:31:19.391Z,20.43
2018-08-30T02:33:47.338Z,20.38
2018-08-30T02:36:15.218Z,20.40
2018-08-30T02:38:43.057Z,20.34
2018-08-30T02:41:10.860Z,20.28
2018-08-30T02:43:38.800Z,20.32
2018-08-30T02:46:06.845Z,20.28
2018-08-30T02:48:35.251Z,20.26
2018-08-30T02:51:03.080Z,20.25
2018-08-30T02:53:30.982Z,20.28
2018-08-30T02:55:58.950Z,20.25
2018-08-30T02:58:26.759Z,20.26
2018-08-30T03:00:54.595Z,20.27
2018-08-30T03:03:26.437Z,20.23
2018-08-30T03:05:55.022Z,20.17
2018-08-30T03:08:23.204Z,20.14
2018-08-30T03:10:50.939Z,20.18
2018-08-30T03:13:18.731Z,20.16
2018-08-30T03:15:47.363Z,20.22
2018-08-30T03:18:15.107Z,20.15
2018-08-30T03:20:42.887Z,20.09
2018-08-30T03:23:11.931Z,20.04
2018-08-30T03:25:39.772Z,20.14
2018-08-30T03:28:07.689Z,20.21
2018-08-30T03:30:35.722Z,20.26
2018-08-30T03:33:03.849Z,20.21
2018-08-30T03:35:31.666Z,20.06
2018-08-30T03:37:59.391Z,19.98
2018-08-30T03:40:27.215Z,19.91
2018-08-30T03:42:54.909Z,19.90
2018-08-30T03:45:22.767Z,19.86
2018-08-30T03:47:51.760Z,19.79
2018-08-30T03:50:19.531Z,19.87
2018-08-30T03:52:48.700Z,19.86
2018-08-30T03:55:21.148Z,19.93
2018-08-30T03:57:48.945Z,19.92
2018-08-30T04:00:16.777Z,19.91
2018-08-30T04:02:44.562Z,19.90
2018-08-30T04:05:12.425Z,19.89
2018-08-30T04:07:40.255Z,19.85
2018-08-30T04:10:08.147Z,19.73
2018-08-30T04:12:35.939Z,19.70
2018-08-30T04:15:03.806Z,19.67
2018-08-30T04:17:35.264Z,19.63
2018-08-30T04:22:43.001Z,19.61
2018-08-30T04:25:10.983Z,19.54
2018-08-30T04:27:38.905Z,19.53
2018-08-30T04:30:06.964Z,19.54
2018-08-30T04:32:34.811Z,19.48
2018-08-30T04:35:02.904Z,19.47
2018-08-30T04:37:30.739Z,19.52
2018-08-30T04:39:58.608Z,19.59
2018-08-30T04:42:26.504Z,19.62
2018-08-30T04:44:54.449Z,19.54
2018-08-30T04:47:22.343Z,19.51
2018-08-30T04:49:50.146Z,19.54
2018-08-30T04:52:17.963Z,19.62
2018-08-30T04:54:45.716Z,19.58
2018-08-30T04:57:13.555Z,19.57
2018-08-30T04:59:41.303Z,19.52
2018-08-30T05:02:09.070Z,19.47
2018-08-30T05:04:36.880Z,19.51
2018-08-30T05:07:04.874Z,19.59
2018-08-30T05:09:32.631Z,19.64
2018-08-30T05:12:00.429Z,19.74
2018-08-30T05:14:28.308Z,19.81
2018-08-30T05:16:56.143Z,19.71
2018-08-30T05:19:24.007Z,19.73
2018-08-30T05:21:51.854Z,19.73
2018-08-30T05:24:19.723Z,19.69
2018-08-30T05:26:47.478Z,19.70
2018-08-30T05:29:15.274Z,19.68
2018-08-30T05:31:43.012Z,19.70
2018-08-30T05:34:10.771Z,19.69
2018-08-30T05:36:38.682Z,19.68
2018-08-30T05:39:07.896Z,19.66
2018-08-30T05:41:35.793Z,19.65
2018-08-30T05:44:03.623Z,19.70
2018-08-30T05:46:31.442Z,19.65
2018-08-30T05:48:59.269Z,19.72
2018-08-30T05:51:27.087Z,19.69
2018-08-30T05:53:54.873Z,19.74
2018-08-30T05:56:22.650Z,19.72
2018-08-30T05:58:50.395Z,19.78
2018-08-30T06:01:21.379Z,19.81
2018-08-30T06:03:49.318Z,19.77
2018-08-30T06:06:17.121Z,19.78
2018-08-30T06:08:44.977Z,19.86
2018-08-30T06:11:12.684Z,19.91
2018-08-30T06:13:40.430Z,19.95
2018-08-30T06:16:08.191Z,19.96
2018-08-30T06:18:35.889Z,20.00
2018-08-30T06:21:03.773Z,19.99
2018-08-30T06:23:31.884Z,19.92
2018-08-30T06:25:59.756Z,19.95
2018-08-30T06:28:27.530Z,19.94
2018-08-30T06:30:55.262Z,19.87
2018-08-30T06:33:23.031Z,19.92
2018-08-30T06:35:51.197Z,19.93
2018-08-30T06:38:18.950Z,19.97
2018-08-30T06:40:46.761Z,19.99
2018-08-30T06:43:14.642Z,19.93
2018-08-30T06:45:42.603Z,19.94
2018-08-30T06:48:10.266Z,20.05
2018-08-30T06:50:37.987Z,20.05
2018-08-30T06:53:05.842Z,20.03
2018-08-30T06:55:33.668Z,19.95
2018-08-30T06:58:01.367Z,19.98
2018-08-30T07:00:29.187Z,19.99
2018-08-30T07:02:56.890Z,19.98
2018-08-30T07:05:24.633Z,20.01
2018-08-30T07:07:52.513Z,20.05
2018-08-30T07:10:20.699Z,20.04
2018-08-30T07:12:48.400Z,20.05
2018-08-30T07:15:16.128Z,20.00
2018-08-30T07:17:43.846Z,20.02
2018-08-30T07:20:11.619Z,20.04
2018-08-30T07:22:39.475Z,19.96
2018-08-30T07:25:07.198Z,19.96
2018-08-30T07:27:34.978Z,19.92
2018-08-30T07:30:03.421Z,19.89
2018-08-30T07:32:31.243Z,19.85
2018-08-30T07:34:59.114Z,19.80
2018-08-30T07:37:26.678Z,19.80
2018-08-30T07:39:54.440Z,19.76
2018-08-30T07:42:22.171Z,19.78
2018-08-30T07:44:53.590Z,19.79
2018-08-30T07:47:21.450Z,19.81
2018-08-30T07:49:49.199Z,19.89
2018-08-30T07:52:17.028Z,19.92
2018-08-30T07:54:44.755Z,19.87
2018-08-30T07:57:12.479Z,19.89
2018-08-30T07:59:40.162Z,19.84
2018-08-30T08:02:07.879Z,19.91
2018-08-30T08:04:35.578Z,19.96
2018-08-30T08:07:03.376Z,20.00
2018-08-30T08:09:31.015Z,19.98
2018-08-30T08:11:59.693Z,20.02
2018-08-30T08:14:27.311Z,19.99
2018-08-30T08:16:56.556Z,19.97
2018-08-30T08:19:24.282Z,19.95
2018-08-30T08:21:51.964Z,19.97
2018-08-30T08:24:19.629Z,20.00
2018-08-30T08:26:47.403Z,20.02
2018-08-30T08:29:15.171Z,19.92
2018-08-30T08:31:42.875Z,20.00
2018-08-30T08:34:10.611Z,20.00
2018-08-30T08:36:38.323Z,20.03
2018-08-30T08:39:06.363Z,20.13
2018-08-30T08:41:34.114Z,20.09
2018-08-30T08:44:01.807Z,20.08
2018-08-30T08:46:29.507Z,20.00
2018-08-30T08:48:57.247Z,20.04
2018-08-30T08:51:24.938Z,20.01
2018-08-30T08:53:52.697Z,19.98
2018-08-30T08:56:20.367Z,19.89
2018-08-30T08:58:48.123Z,19.90
2018-08-30T09:01:15.884Z,19.86
2018-08-30T09:03:43.820Z,19.90
2018-08-30T09:06:11.516Z,19.99
2018-08-30T09:08:39.566Z,20.04
2018-08-30T09:11:07.436Z,20.07
2018-08-30T09:13:35.173Z,20.09
2018-08-30T09:16:15.022Z,20.16
2018-08-30T09:18:42.713Z,20.22
2018-08-30T09:21:10.439Z,20.22
2018-08-30T09:23:38.119Z,20.18
2018-08-30T09:26:05.846Z,20.22
2018-08-30T09:28:33.579Z,20.19
2018-08-30T09:31:01.297Z,20.17
2018-08-30T09:33:28.954Z,20.03
2018-08-30T09:35:56.671Z,20.01
2018-08-30T09:38:24.427Z,19.98
2018-08-30T09:40:52.162Z,20.07
2018-08-30T09:43:19.843Z,20.10
2018-08-30T09:45:47.727Z,20.20
2018-08-30T09:48:15.768Z,20.28
2018-08-30T09:50:43.502Z,20.32
2018-08-30T09:53:11.214Z,20.21
2018-08-30T09:55:38.990Z,20.19
2018-08-30T09:58:06.758Z,20.24
2018-08-30T10:00:40.343Z,20.29
2018-08-30T10:03:08.099Z,20.36
2018-08-30T10:05:35.822Z,20.36
2018-08-30T10:08:03.595Z,20.31
2018-08-30T10:10:31.287Z,20.32
2018-08-30T10:12:59.246Z,20.30
2018-08-30T10:15:26.935Z,20.32
2018-08-30T10:17:54.648Z,20.33
2018-08-30T10:20:22.455Z,20.40
2018-08-30T10:22:50.162Z,20.40
2018-08-30T10:25:17.898Z,20.43
2018-08-30T10:27:45.524Z,20.47
2018-08-30T10:30:13.202Z,20.49
2018-08-30T10:32:40.948Z,20.42
2018-08-30T10:35:08.604Z,20.41
2018-08-30T10:37:36.324Z,20.47
2018-08-30T10:40:04.059Z,20.48
2018-08-30T10:42:32.113Z,20.50
2018-08-30T10:44:59.827Z,20.54
2018-08-30T10:47:27.534Z,20.63
2018-08-30T10:49:55.330Z,20.58
2018-08-30T10:52:22.950Z,20.68
2018-08-30T10:54:50.643Z,20.67
2018-08-30T10:57:18.351Z,20.72
2018-08-30T10:59:46.056Z,20.66
2018-08-30T11:02:13.827Z,20.60
2018-08-30T11:04:44.744Z,20.61
2018-08-30T11:07:12.480Z,20.68
2018-08-30T11:09:40.187Z,20.66
2018-08-30T11:12:08.308Z,20.69
2018-08-30T11:14:36.062Z,20.86
2018-08-30T11:17:04.087Z,21.02
2018-08-30T11:19:31.890Z,21.12
2018-08-30T11:22:00.389Z,21.02
2018-08-30T11:24:28.146Z,20.98
2018-08-30T11:26:55.776Z,20.96
2018-08-30T11:29:23.791Z,21.04
2018-08-30T11:31:51.502Z,21.12
2018-08-30T11:34:19.206Z,21.08
2018-08-30T11:36:46.923Z,20.98
2018-08-30T11:39:14.611Z,21.01
2018-08-30T11:41:42.407Z,21.06
2018-08-30T11:44:10.299Z,21.08
2018-08-30T11:46:38.015Z,21.14
2018-08-30T11:49:05.732Z,21.13
2018-08-30T11:51:33.472Z,21.30
2018-08-30T11:54:01.558Z,21.30
2018-08-30T11:56:29.242Z,21.22
2018-08-30T11:58:57.430Z,21.31
2018-08-30T12:01:25.178Z,21.45
2018-08-30T12:03:55.395Z,21.47
2018-08-30T12:06:26.558Z,21.55
2018-08-30T12:08:54.398Z,21.45
2018-08-30T12:11:22.166Z,21.47
2018-08-30T12:13:50.035Z,21.48
2018-08-30T12:16:17.750Z,21.45
2018-08-30T12:18:45.475Z,21.42
2018-08-30T12:21:13.227Z,21.46
2018-08-30T12:23:40.922Z,21.78
2018-08-30T12:26:08.860Z,21.64
2018-08-30T12:28:37.289Z,21.87
2018-08-30T12:31:05.043Z,21.82
2018-08-30T12:33:32.715Z,21.99
2018-08-30T12:36:00.929Z,21.97
2018-08-30T12:38:28.942Z,22.01
2018-08-30T12:40:56.724Z,21.85
2018-08-30T12:43:24.491Z,21.84
2018-08-30T12:45:52.161Z,21.88
2018-08-30T12:48:19.820Z,21.90
2018-08-30T12:50:47.628Z,21.89
2018-08-30T12:53:15.514Z,21.98
2018-08-30T12:55:43.223Z,22.00
2018-08-30T12:58:11.029Z,21.95
2018-08-30T13:00:38.697Z,21.93
2018-08-30T13:03:06.370Z,21.89
2018-08-30T13:05:34.534Z,21.92
2018-08-30T13:08:02.321Z,22.02
2018-08-30T13:10:30.117Z,22.08
2018-08-30T13:12:57.857Z,21.98
2018-08-30T13:15:25.662Z,21.90
2018-08-30T13:17:53.221Z,21.96
2018-08-30T13:20:21.030Z,22.00
2018-08-30T13:22:48.767Z,22.30
2018-08-30T13:25:16.530Z,22.19
2018-08-30T13:27:44.262Z,22.43
2018-08-30T13:30:11.997Z,22.59
2018-08-30T13:32:39.822Z,22.63
2018-08-30T13:35:07.489Z,22.61
2018-08-30T13:37:35.175Z,22.49
2018-08-30T13:40:03.919Z,22.39
2018-08-30T13:42:31.474Z,22.24
2018-08-30T13:44:59.313Z,22.07
2018-08-30T13:47:27.050Z,22.18
2018-08-30T13:49:54.569Z,22.20
2018-08-30T13:52:22.277Z,22.30
2018-08-30T13:54:50.089Z,22.17
2018-08-30T13:59:45.092Z,22.03
2018-08-30T14:02:12.440Z,21.94
2018-08-30T14:04:40.321Z,21.77
2018-08-30T14:07:11.738Z,21.72
2018-08-30T14:09:39.408Z,21.65
2018-08-30T14:12:07.473Z,21.58
2018-08-30T14:14:35.144Z,21.59
2018-08-30T14:17:02.955Z,21.71
2018-08-30T14:19:30.815Z,21.67
2018-08-30T14:21:58.466Z,21.66
2018-08-30T14:24:26.489Z,21.75
2018-08-30T14:26:54.289Z,21.85
2018-08-30T14:29:22.112Z,21.85
2018-08-30T14:31:49.799Z,21.80
2018-08-30T14:34:17.523Z,22.20
2018-08-30T14:36:45.238Z,22.10
2018-08-30T14:39:13.140Z,22.02
2018-08-30T14:41:40.983Z,21.86
2018-08-30T14:44:08.951Z,21.84
2018-08-30T14:46:37.015Z,21.86
2018-08-30T14:49:05.182Z,21.88
2018-08-30T14:51:32.960Z,21.88
2018-08-30T14:54:00.762Z,22.03
2018-08-30T14:56:28.630Z,22.03
2018-08-30T14:58:56.272Z,21.93
2018-08-30T15:01:24.027Z,21.80
2018-08-30T15:03:51.697Z,21.90
2018-08-30T15:06:19.423Z,21.92
2018-08-30T15:08:47.319Z,22.07
2018-08-30T15:11:15.158Z,21.80
2018-08-30T15:13:42.835Z,21.73
2018-08-30T15:16:10.528Z,21.66
2018-08-30T15:18:38.204Z,21.82
2018-08-30T15:21:05.946Z,22.03
2018-08-30T15:26:01.620Z,22.00
2018-08-30T15:28:29.703Z,22.01
2018-08-30T15:30:57.343Z,21.86
2018-08-30T15:33:25.083Z,21.76
2018-08-30T15:35:53.247Z,21.80
2018-08-30T15:38:20.996Z,21.71
2018-08-30T15:40:48.759Z,21.99
2018-08-30T15:43:16.569Z,22.16
2018-08-30T15:45:44.286Z,22.10
2018-08-30T15:48:12.196Z,22.09
2018-08-30T15:50:39.966Z,22.10
2018-08-30T15:53:07.723Z,22.21
2018-08-30T15:55:35.491Z,22.26
2018-08-30T15:58:03.456Z,22.16
2018-08-30T16:00:31.171Z,22.24
2018-08-30T16:02:59.107Z,22.45
2018-08-30T16:05:27.197Z,22.46
2018-08-30T16:07:54.999Z,22.49
2018-08-30T16:10:23.660Z,22.37
2018-08-30T16:12:51.497Z,22.25
2018-08-30T16:15:54.874Z,22.18
2018-08-30T16:18:23.267Z,22.14
2018-08-30T16:20:51.177Z,22.07
2018-08-30T16:23:28.544Z,22.19
2018-08-30T16:25:57.053Z,22.17
2018-08-30T16:28:26.470Z,22.15
2018-08-30T16:30:55.545Z,22.09
2018-08-30T16:33:23.543Z,22.03
2018-08-30T16:35:51.729Z,21.92
2018-08-30T16:38:19.690Z,21.87
2018-08-30T16:40:47.447Z,21.85
2018-08-30T16:43:16.533Z,21.79
2018-08-30T16:45:44.816Z,21.79
2018-08-30T16:48:12.677Z,21.76
2018-08-30T16:50:40.692Z,21.71
2018-08-30T16:53:11.362Z,21.75
2018-08-30T16:55:39.603Z,21.76
2018-08-30T16:58:07.536Z,21.80
2018-08-30T17:00:35.278Z,21.69
2018-08-30T17:03:08.393Z,21.65
2018-08-30T17:05:41.849Z,21.64
2018-08-30T17:08:09.684Z,21.66
2018-08-30T17:10:37.466Z,21.63
2018-08-30T17:13:05.215Z,21.64
2018-08-30T17:15:32.979Z,21.62
2018-08-30T17:18:00.815Z,21.52
2018-08-30T17:20:38.655Z,21.46
2018-08-30T17:23:06.627Z,21.62
2018-08-30T17:25:34.850Z,21.60
2018-08-30T17:28:02.939Z,21.53
2018-08-30T17:30:30.691Z,21.56
2018-08-30T17:32:58.500Z,21.59
2018-08-30T17:35:26.783Z,21.58
2018-08-30T17:37:54.710Z,21.52
2018-08-30T17:40:22.585Z,21.57
2018-08-30T17:42:50.999Z,21.56
2018-08-30T17:45:19.011Z,21.56
2018-08-30T17:47:46.944Z,21.56
2018-08-30T17:50:15.189Z,21.50
2018-08-30T17:52:42.705Z,21.47
2018-08-30T17:55:16.411Z,21.40
2018-08-30T17:57:44.158Z,21.41
2018-08-30T18:00:12.935Z,21.34
2018-08-30T18:02:41.731Z,21.34
2018-08-30T18:05:09.483Z,21.29
2018-08-30T18:07:37.347Z,21.29
2018-08-30T18:10:07.461Z,21.24
2018-08-30T18:12:35.353Z,21.24
2018-08-30T18:15:03.333Z,21.19
2018-08-30T18:17:31.102Z,21.16
2018-08-30T18:19:59.002Z,21.20
2018-08-30T18:22:26.771Z,21.17
2018-08-30T18:24:54.623Z,21.13
2018-08-30T18:27:30.453Z,21.13
2018-08-30T18:29:58.267Z,21.12
2018-08-30T18:32:25.959Z,21.05
2018-08-30T18:34:53.852Z,21.03
2018-08-30T18:37:21.507Z,21.00
2018-08-30T18:39:49.315Z,21.03
2018-08-30T18:42:17.071Z,20.99
2018-08-30T18:44:44.774Z,20.98
2018-08-30T18:47:12.483Z,20.92
2018-08-30T18:49:40.356Z,20.94
2018-08-30T18:52:08.072Z,20.89
2018-08-30T18:54:36.159Z,20.91
2018-08-30T18:57:04.036Z,20.94
2018-08-30T18:59:32.040Z,20.90
2018-08-30T19:01:59.962Z,20.93
2018-08-30T19:04:27.703Z,20.88
2018-08-30T19:06:55.551Z,20.84
2018-08-30T19:09:23.288Z,20.84
2018-08-30T19:11:51.108Z,20.78
2018-08-30T19:14:18.926Z,20.74
2018-08-30T19:16:52.662Z,20.72
2018-08-30T19:19:22.953Z,20.68
2018-08-30T19:21:50.644Z,20.56
2018-08-30T19:24:24.207Z,20.51
2018-08-30T19:26:51.990Z,20.57
2018-08-30T19:29:19.997Z,20.56
2018-08-30T19:31:47.811Z,20.53
2018-08-30T19:34:15.589Z,20.54
2018-08-30T19:36:43.329Z,20.53
2018-08-30T19:39:11.898Z,20.58
2018-08-30T19:41:39.671Z,20.58
2018-08-30T19:44:08.386Z,20.52
2018-08-30T19:46:36.115Z,20.51
2018-08-30T19:49:03.808Z,20.52
2018-08-30T19:51:31.554Z,20.54
2018-08-30T19:53:59.219Z,20.45
2018-08-30T19:56:26.967Z,20.45
2018-08-30T19:58:54.937Z,20.52
2018-08-30T20:01:22.626Z,20.48
2018-08-30T20:03:50.349Z,20.42
2018-08-30T20:06:18.143Z,20.39
2018-08-30T20:08:45.821Z,20.40
2018-08-30T20:11:13.595Z,20.43
2018-08-30T20:13:41.395Z,20.44
2018-08-30T20:16:09.135Z,20.48
2018-08-30T20:18:36.987Z,20.51
2018-08-30T20:21:04.702Z,20.56
2018-08-30T20:23:32.447Z,20.55
2018-08-30T20:26:00.288Z,20.50
2018-08-30T20:28:27.970Z,20.50
2018-08-30T20:30:56.051Z,20.39
2018-08-30T20:33:23.884Z,20.34
2018-08-30T20:35:51.744Z,20.49
2018-08-30T20:38:19.667Z,20.45
2018-08-30T20:40:48.083Z,20.51
2018-08-30T20:43:15.854Z,20.37
2018-08-30T20:45:43.571Z,20.30
2018-08-30T20:48:11.311Z,20.26
2018-08-30T20:50:39.095Z,20.18
2018-08-30T20:53:06.804Z,20.13
2018-08-30T20:55:34.528Z,20.13
2018-08-30T20:58:02.332Z,20.09
2018-08-30T21:00:30.028Z,20.10
2018-08-30T21:02:57.844Z,20.04
2018-08-30T21:05:25.574Z,20.01
2018-08-30T21:07:53.575Z,20.06
2018-08-30T21:10:21.392Z,20.05
2018-08-30T21:12:49.055Z,20.00
2018-08-30T21:15:16.840Z,20.06
2018-08-30T21:17:44.627Z,20.01
2018-08-30T21:20:12.678Z,19.95
2018-08-30T21:22:40.415Z,19.86
2018-08-30T21:25:08.193Z,19.83
2018-08-30T21:27:35.958Z,19.80
2018-08-30T21:30:04.372Z,19.77
2018-08-30T21:32:32.149Z,19.76
2018-08-30T21:34:59.923Z,19.76
2018-08-30T21:37:27.894Z,19.81
2018-08-30T21:39:55.614Z,19.90
2018-08-30T21:42:23.392Z,19.92
2018-08-30T21:44:51.123Z,19.98
2018-08-30T21:47:18.898Z,20.01
2018-08-30T21:49:46.748Z,20.03
2018-08-30T21:52:14.770Z,20.08
2018-08-30T21:54:42.722Z,20.14
2018-08-30T21:57:10.483Z,20.13
2018-08-30T21:59:38.194Z,20.08
2018-08-30T22:02:06.131Z,20.03
2018-08-30T22:04:33.901Z,20.03
2018-08-30T22:07:01.691Z,20.06
2018-08-30T22:09:29.390Z,20.02
2018-08-30T22:11:57.330Z,20.00
2018-08-30T22:14:24.993Z,19.99
2018-08-30T22:16:52.826Z,19.92
2018-08-30T22:19:20.486Z,19.78
2018-08-30T22:21:48.175Z,19.72
2018-08-30T22:24:15.915Z,19.67
2018-08-30T22:26:43.630Z,19.70
2018-08-30T22:29:11.332Z,19.67
2018-08-30T22:31:39.058Z,19.73
2018-08-30T22:34:07.104Z,19.87
2018-08-30T22:36:34.935Z,19.76
2018-08-30T22:39:03.386Z,19.77
2018-08-30T22:41:31.083Z,19.69
2018-08-30T22:43:59.108Z,19.65
2018-08-30T22:46:26.835Z,19.68
2018-08-30T22:48:54.522Z,19.77
2018-08-30T22:51:22.304Z,19.70
2018-08-30T22:53:50.132Z,19.67
2018-08-30T22:56:17.971Z,19.58
2018-08-30T22:58:45.791Z,19.62
2018-08-30T23:01:13.562Z,19.54
2018-08-30T23:03:41.310Z,19.50
2018-08-30T23:06:09.602Z,19.49
2018-08-30T23:08:37.366Z,19.60
2018-08-30T23:11:05.119Z,19.60
2018-08-30T23:13:36.335Z,19.63
2018-08-30T23:16:04.024Z,19.67
2018-08-30T23:18:31.843Z,19.61
2018-08-30T23:20:59.568Z,19.55
2018-08-30T23:23:27.378Z,19.56
2018-08-30T23:25:55.039Z,19.62
2018-08-30T23:28:22.807Z,19.63
2018-08-30T23:30:50.710Z,19.58
2018-08-30T23:33:18.506Z,19.56
2018-08-30T23:35:46.270Z,19.63
2018-08-30T23:38:14.009Z,19.60
2018-08-30T23:40:41.799Z,19.55
2018-08-30T23:43:09.571Z,19.54
2018-08-30T23:45:37.238Z,19.52
2018-08-30T23:48:05.115Z,19.53
2018-08-30T23:50:32.825Z,19.53
2018-08-30T23:53:00.807Z,19.50
2018-08-30T23:55:28.563Z,19.40
2018-08-30T23:58:14.307Z,19.35
